< < Back
Terminal Aerodrome Forecast


Current Version              Previous Versions:   1  2  3  4  5  6  7  8  9  

Terminal Aerodrome Forecast

753
FTUS42 KTAE 301729
TAFVLD
TAF
KVLD 301729Z 3018/0118 26010KT P6SM VCTS SCT025CB
      TEMPO 3018/3022 VRB15G30KT 2SM TSRA BKN025CB
     FM010100 20004KT P6SM SCT100 BKN200
     FM011000 00000KT 3SM BR FEW200
     FM011300 24005KT P6SM SCT040=

Latest METAR

800
SAUS70 KWBC 011200 RRU
MTRVLD
METAR KVLD 011153Z 00000KT 10SM SCT024 BKN038 OVC044 22/21 A3011 RMK AO2
SLP201 70023 T02170206 10217 20189 51008


USA.gov is the U.S. government's official web portal to all federal, state and local government web resources and services.